Frankfurt, Germany

3:42 AM CEST on July 31, 2016 (GMT +0200)
Frankfurt / Main | | Change Station

Elev 371 ft 50.04 °N, 8.60 °E | Updated 22 minutes ago

Clear
Clear
64 °F
Feels Like 64 °F
N
4
Wind Variable Wind from NNW

Today
High -- | Low -- °F
--% Chance of Precip.
Yesterday
High -- | Low -- °F
Precip. -- in
Pressure 29.89 in
Visibility -9999.0 miles
Clouds
Dew Point 61 °F
Humidity 88%
Rainfall 0.00 in
Snow Depth Not available.
5:53 AM 9:09 PM
Waning Crescent, 9% visible
METAR EDDF 310120Z 34003KT 300V020 CAVOK 18/16 Q1012 NOSIG
Pressure 29.89 in
Visibility -9999.0 miles
Clouds
Dew Point 61 °F
Humidity 88%
Rainfall 0.00 in
Snow Depth Not available.
5:53 AM 9:09 PM
Waning Crescent, 9% visible
METAR EDDF 310120Z 34003KT 300V020 CAVOK 18/16 Q1012 NOSIG

10-Day Weather Forecast

×

Almanac

Astronomy

Jul. 31, 2016 Rise Set
Actual Time
Civil Twilight
Nautical Twilight
Astronomical Twilight
Moon
Length of Visible Light
Length of Day
Tomorrow will be .
, % of the Moon is Illuminated

Today's Extremes

Country Highs Country Lows

Community

WunderPhotos

Upload Photos

1,928,702 photos uploaded!

WunderBlog® & News

Nearby

Air Quality

  Air Quality AQ Index Pollutant
Not available.

Snow Depth

Station Depth Elevation

Earthquake Activity

City Distance Mag. Time & Date
Minimum magnitude displayed is 2.5.

Coastal Water Temperatures

Place Temperature

Stations

Nearby Weather Stations

Station Location Temp. Windchill Dew Point Humidity Wind Precip. Elev Updated Type